createdAt,value
2022-09-28T00:00:39.725Z,1.33
2022-09-28T00:03:07.843Z,0.97
2022-09-28T00:05:36.109Z,1.60
2022-09-28T00:08:03.977Z,3.07
2022-09-28T00:10:31.810Z,2.43
2022-09-28T00:13:01.782Z,1.10
2022-09-28T00:15:29.744Z,2.97
2022-09-28T00:17:57.569Z,1.30
2022-09-28T00:20:25.529Z,1.10
2022-09-28T00:22:53.593Z,1.57
2022-09-28T00:25:22.012Z,2.17
2022-09-28T00:27:51.297Z,2.63
2022-09-28T00:30:20.489Z,1.10
2022-09-28T00:32:48.365Z,1.70
2022-09-28T00:35:16.332Z,1.43
2022-09-28T00:37:44.162Z,1.80
2022-09-28T00:40:12.057Z,1.30
2022-09-28T00:42:42.778Z,1.40
2022-09-28T00:45:11.106Z,2.40
2022-09-28T00:47:51.831Z,1.40
2022-09-28T00:50:25.038Z,1.83
2022-09-28T00:52:55.895Z,2.57
2022-09-28T00:55:32.603Z,1.27
2022-09-28T00:58:04.346Z,1.70
2022-09-28T01:00:32.741Z,2.37
2022-09-28T01:03:02.212Z,2.40
2022-09-28T01:05:30.123Z,1.27
2022-09-28T01:07:58.475Z,1.07
2022-09-28T01:10:26.556Z,0.83
2022-09-28T01:12:55.943Z,1.20
2022-09-28T01:15:25.209Z,1.10
2022-09-28T01:18:06.758Z,1.10
2022-09-28T01:20:49.385Z,0.90
2022-09-28T01:23:52.680Z,2.03
2022-09-28T01:26:35.897Z,1.00
2022-09-28T01:29:11.727Z,2.37
2022-09-28T01:31:42.848Z,1.60
2022-09-28T01:34:16.261Z,2.07
2022-09-28T01:36:48.555Z,1.60
2022-09-28T01:39:18.806Z,2.10
2022-09-28T01:41:53.094Z,1.73
2022-09-28T01:44:23.286Z,2.50
2022-09-28T01:46:53.281Z,2.53
2022-09-28T01:49:23.060Z,2.17
2022-09-28T01:51:56.442Z,0.77
2022-09-28T01:54:32.329Z,0.97
2022-09-28T01:57:07.773Z,1.20
2022-09-28T01:59:37.550Z,1.63
2022-09-28T02:02:08.291Z,3.90
2022-09-28T02:04:41.178Z,0.90
2022-09-28T02:07:12.000Z,1.30
2022-09-28T02:09:43.421Z,1.20
2022-09-28T02:12:16.756Z,1.13
2022-09-28T02:14:47.870Z,1.13
2022-09-28T02:17:16.096Z,1.10
2022-09-28T02:19:45.096Z,0.90
2022-09-28T02:22:24.124Z,2.20
2022-09-28T02:24:56.775Z,1.17
2022-09-28T02:27:35.572Z,1.97
2022-09-28T02:30:03.615Z,1.60
2022-09-28T02:32:34.230Z,1.43
2022-09-28T02:35:02.576Z,1.67
2022-09-28T02:37:30.388Z,0.97
2022-09-28T02:39:58.141Z,1.63
2022-09-28T02:42:34.636Z,1.30
2022-09-28T02:45:14.769Z,3.17
2022-09-28T02:48:03.588Z,1.13
2022-09-28T02:50:41.816Z,0.53
2022-09-28T02:53:45.775Z,0.80
2022-09-28T02:56:27.051Z,2.20
2022-09-28T02:59:06.585Z,1.30
2022-09-28T03:01:41.281Z,0.70
2022-09-28T03:04:18.980Z,0.97
2022-09-28T03:06:53.906Z,0.80
2022-09-28T03:09:26.550Z,0.80
2022-09-28T03:11:56.812Z,0.77
2022-09-28T03:14:26.107Z,2.10
2022-09-28T03:16:53.876Z,0.43
2022-09-28T03:19:27.498Z,1.47
2022-09-28T03:21:55.557Z,0.63
2022-09-28T03:24:23.343Z,2.73
2022-09-28T03:26:51.119Z,0.50
2022-09-28T03:29:20.304Z,0.73
2022-09-28T03:31:49.526Z,0.57
2022-09-28T03:34:17.260Z,2.10
2022-09-28T03:36:44.992Z,0.70
2022-09-28T03:39:12.713Z,1.17
2022-09-28T03:41:40.440Z,0.70
2022-09-28T03:44:08.216Z,0.40
2022-09-28T03:46:35.953Z,0.40
2022-09-28T03:49:05.033Z,1.13
2022-09-28T03:51:32.853Z,2.10
2022-09-28T03:54:00.593Z,0.90
2022-09-28T03:56:28.328Z,1.53
2022-09-28T03:58:56.072Z,0.73
2022-09-28T04:01:23.916Z,1.77
2022-09-28T04:03:54.985Z,0.67
2022-09-28T04:06:24.316Z,2.20
2022-09-28T04:08:52.101Z,1.63
2022-09-28T04:11:20.092Z,1.27
2022-09-28T04:13:50.042Z,0.77
2022-09-28T04:16:18.822Z,1.90
2022-09-28T04:18:46.999Z,2.20
2022-09-28T04:21:16.572Z,1.43
2022-09-28T04:23:45.953Z,1.63
2022-09-28T04:26:17.323Z,1.23
2022-09-28T04:29:06.520Z,2.37
2022-09-28T04:31:39.421Z,0.90
2022-09-28T04:34:07.264Z,1.97
2022-09-28T04:36:35.016Z,2.30
2022-09-28T04:39:04.306Z,1.10
2022-09-28T04:41:32.060Z,1.33
2022-09-28T04:44:00.189Z,1.37
2022-09-28T04:46:28.017Z,1.17
2022-09-28T04:48:55.762Z,1.70
2022-09-28T04:51:23.630Z,1.77
2022-09-28T04:53:51.687Z,0.80
2022-09-28T04:56:20.816Z,2.07
2022-09-28T04:58:52.602Z,2.97
2022-09-28T05:01:23.323Z,1.67
2022-09-28T05:03:51.473Z,1.83
2022-09-28T05:06:19.274Z,1.90
2022-09-28T05:08:47.641Z,1.27
2022-09-28T05:11:15.803Z,0.93
2022-09-28T05:13:46.159Z,1.30
2022-09-28T05:16:16.059Z,0.50
2022-09-28T05:18:44.247Z,3.90
2022-09-28T05:21:12.985Z,0.60
2022-09-28T05:23:41.052Z,1.27
2022-09-28T05:26:08.821Z,2.70
2022-09-28T05:28:36.552Z,0.80
2022-09-28T05:31:06.318Z,0.67
2022-09-28T05:33:34.533Z,1.93
2022-09-28T05:36:02.816Z,0.60
2022-09-28T05:38:30.909Z,1.17
2022-09-28T05:41:02.106Z,0.60
2022-09-28T05:43:32.976Z,0.40
2022-09-28T05:46:01.364Z,0.60
2022-09-28T05:48:30.501Z,1.27
2022-09-28T05:50:59.551Z,2.50
2022-09-28T05:53:27.415Z,0.70
2022-09-28T05:55:59.114Z,0.60
2022-09-28T05:58:26.874Z,1.73
2022-09-28T06:00:55.800Z,3.97
2022-09-28T06:03:23.748Z,1.53
2022-09-28T06:05:52.880Z,1.07
2022-09-28T06:08:20.663Z,1.53
2022-09-28T06:10:48.531Z,1.57
2022-09-28T06:13:16.291Z,1.57
2022-09-28T06:15:44.725Z,1.03
2022-09-28T06:18:15.008Z,1.03
2022-09-28T06:20:43.562Z,1.63
2022-09-28T06:23:13.931Z,1.90
2022-09-28T06:25:42.257Z,1.17
2022-09-28T06:28:12.711Z,1.10
2022-09-28T06:30:41.659Z,4.03
2022-09-28T06:33:12.711Z,5.33
2022-09-28T06:35:40.905Z,2.90
2022-09-28T06:38:09.283Z,2.87
2022-09-28T06:40:38.668Z,3.43
2022-09-28T06:43:10.255Z,1.90
2022-09-28T06:45:40.133Z,2.00
2022-09-28T06:48:08.982Z,1.10
2022-09-28T06:50:38.284Z,2.13
2022-09-28T06:53:07.497Z,1.93
2022-09-28T06:55:35.283Z,1.13
2022-09-28T06:58:06.662Z,1.40
2022-09-28T07:00:37.487Z,1.23
2022-09-28T07:03:06.680Z,1.27
2022-09-28T07:05:36.859Z,2.23
2022-09-28T07:08:05.364Z,1.30
2022-09-28T07:10:33.748Z,1.63
2022-09-28T07:13:05.238Z,2.57
2022-09-28T07:15:34.438Z,1.87
2022-09-28T07:18:04.225Z,1.60
2022-09-28T07:20:39.628Z,1.60
2022-09-28T07:23:18.818Z,2.10
2022-09-28T07:25:49.504Z,1.83
2022-09-28T07:28:18.733Z,1.37
2022-09-28T07:30:46.654Z,1.73
2022-09-28T07:33:15.886Z,1.73
2022-09-28T07:35:52.085Z,1.80
2022-09-28T07:38:19.884Z,2.67
2022-09-28T07:41:05.687Z,3.73
2022-09-28T07:43:35.256Z,1.30
2022-09-28T07:46:03.030Z,1.43
2022-09-28T07:48:37.668Z,2.43
2022-09-28T07:51:05.884Z,2.00
2022-09-28T07:53:33.754Z,2.27
2022-09-28T07:56:07.114Z,1.50
2022-09-28T07:58:37.733Z,2.30
2022-09-28T08:01:07.635Z,2.23
2022-09-28T08:03:36.352Z,1.57
2022-09-28T08:06:06.440Z,1.30
2022-09-28T08:08:35.556Z,0.73
2022-09-28T08:11:03.816Z,0.87
2022-09-28T08:13:31.757Z,1.43
2022-09-28T08:16:04.381Z,0.60
2022-09-28T08:18:32.416Z,1.37
2022-09-28T08:21:17.689Z,0.97
2022-09-28T08:23:45.440Z,1.63
2022-09-28T08:26:15.543Z,2.13
2022-09-28T08:28:45.006Z,2.80
2022-09-28T08:31:14.371Z,2.53
2022-09-28T08:33:42.924Z,1.20
2022-09-28T08:36:11.245Z,0.80
2022-09-28T08:38:39.001Z,0.70
2022-09-28T08:41:15.874Z,1.20
2022-09-28T08:43:58.797Z,0.80
2022-09-28T08:46:32.111Z,0.70
2022-09-28T08:49:24.225Z,0.70
2022-09-28T08:51:58.588Z,0.50
2022-09-28T08:54:34.344Z,0.70
2022-09-28T08:57:05.904Z,1.13
2022-09-28T08:59:46.581Z,1.20
2022-09-28T09:02:19.780Z,0.67
2022-09-28T09:04:47.753Z,0.77
2022-09-28T09:07:34.875Z,0.70
2022-09-28T09:10:14.689Z,1.13
2022-09-28T09:12:51.232Z,0.63
2022-09-28T09:15:41.265Z,0.77
2022-09-28T09:18:28.360Z,0.63
2022-09-28T09:20:58.395Z,1.37
2022-09-28T09:23:35.593Z,0.70
2022-09-28T09:26:14.690Z,0.67
2022-09-28T09:29:14.565Z,0.73
2022-09-28T09:31:59.491Z,0.73
2022-09-28T09:34:42.282Z,1.07
2022-09-28T09:37:38.726Z,0.50
2022-09-28T09:40:20.557Z,0.50
2022-09-28T09:42:57.204Z,3.97
2022-09-28T09:45:49.587Z,0.87
2022-09-28T09:48:25.074Z,0.60
2022-09-28T09:50:58.537Z,0.70
2022-09-28T09:53:36.110Z,1.07
2022-09-28T09:56:13.493Z,0.60
2022-09-28T09:58:46.328Z,0.50
2022-09-28T10:01:16.665Z,0.80
2022-09-28T10:03:49.097Z,0.60
2022-09-28T10:06:21.763Z,2.07
2022-09-28T10:08:53.752Z,2.00
2022-09-28T10:11:27.989Z,1.10
2022-09-28T10:13:56.790Z,0.60
2022-09-28T10:16:25.469Z,0.80
2022-09-28T10:18:53.279Z,0.47
2022-09-28T10:21:24.428Z,0.50
2022-09-28T10:23:56.664Z,1.00
2022-09-28T10:26:28.294Z,0.50
2022-09-28T10:28:59.841Z,0.50
2022-09-28T10:31:42.364Z,0.33
2022-09-28T10:34:13.995Z,0.90
2022-09-28T10:36:55.113Z,0.40
2022-09-28T10:39:28.398Z,0.70
2022-09-28T10:41:56.360Z,1.67
2022-09-28T10:44:24.173Z,0.63
2022-09-28T10:46:57.908Z,1.27
2022-09-28T10:49:26.972Z,0.70
2022-09-28T10:51:57.046Z,0.40
2022-09-28T10:54:26.443Z,0.60
2022-09-28T10:56:56.554Z,0.50
2022-09-28T10:59:34.876Z,0.93
2022-09-28T11:02:05.377Z,1.37
2022-09-28T11:04:41.525Z,0.40
2022-09-28T11:07:19.340Z,0.47
2022-09-28T11:09:49.824Z,0.67
2022-09-28T11:12:22.317Z,1.80
2022-09-28T11:14:56.501Z,0.40
2022-09-28T11:17:30.644Z,0.40
2022-09-28T11:20:00.745Z,0.97
2022-09-28T11:22:41.636Z,0.77
2022-09-28T11:25:23.484Z,0.50
2022-09-28T11:28:04.324Z,0.53
2022-09-28T11:30:34.866Z,0.60
2022-09-28T11:33:06.029Z,0.40
2022-09-28T11:35:46.216Z,0.33
2022-09-28T11:38:33.446Z,1.63
2022-09-28T11:41:22.724Z,0.30
2022-09-28T11:44:14.154Z,0.40
2022-09-28T11:46:51.445Z,0.70
2022-09-28T11:49:30.708Z,0.50
2022-09-28T11:52:03.402Z,0.40
2022-09-28T11:54:42.212Z,2.13
2022-09-28T11:57:15.585Z,0.40
2022-09-28T11:59:52.340Z,0.67
2022-09-28T12:02:25.107Z,1.60
2022-09-28T12:04:57.341Z,0.97
2022-09-28T12:07:29.121Z,1.20
2022-09-28T12:10:03.811Z,0.77
2022-09-28T12:12:35.456Z,0.90
2022-09-28T12:15:13.406Z,0.60
2022-09-28T12:17:46.635Z,0.50
2022-09-28T12:20:20.060Z,0.40
2022-09-28T12:23:02.791Z,1.27
2022-09-28T12:25:40.401Z,0.90
2022-09-28T12:28:15.798Z,2.17
2022-09-28T12:30:46.534Z,0.77
2022-09-28T12:33:15.802Z,0.20
2022-09-28T12:36:02.956Z,1.03
2022-09-28T12:38:50.887Z,1.30
2022-09-28T12:41:41.842Z,0.40
2022-09-28T12:44:25.573Z,1.10
2022-09-28T12:47:09.504Z,0.70
2022-09-28T12:50:36.992Z,1.53
2022-09-28T12:53:00.692Z,0.50
2022-09-28T12:55:56.443Z,0.60
2022-09-28T12:58:38.885Z,0.60
2022-09-28T13:01:21.898Z,0.43
2022-09-28T13:04:13.345Z,1.00
2022-09-28T13:06:52.781Z,0.50
2022-09-28T13:09:23.764Z,0.30
2022-09-28T13:12:03.720Z,0.80
2022-09-28T13:14:59.156Z,0.87
2022-09-28T13:17:40.412Z,1.20
2022-09-28T13:20:21.364Z,0.43
2022-09-28T13:22:55.025Z,0.70
2022-09-28T13:25:26.219Z,0.50
2022-09-28T13:27:58.380Z,0.53
2022-09-28T13:30:27.865Z,1.37
2022-09-28T13:32:58.207Z,1.80
2022-09-28T13:35:26.400Z,1.23
2022-09-28T13:38:27.332Z,0.80
2022-09-28T13:41:17.528Z,0.77
2022-09-28T13:44:06.902Z,0.50
2022-09-28T13:46:44.087Z,0.50
2022-09-28T13:49:19.176Z,0.30
2022-09-28T13:52:01.130Z,0.87
2022-09-28T13:54:56.777Z,0.40
2022-09-28T13:57:32.301Z,0.53
2022-09-28T14:00:10.527Z,1.07
2022-09-28T14:02:46.201Z,0.80
2022-09-28T14:05:34.196Z,2.77
2022-09-28T14:08:24.186Z,0.60
2022-09-28T14:10:54.082Z,1.37
2022-09-28T14:13:59.077Z,0.53
2022-09-28T14:16:30.939Z,0.40
2022-09-28T14:19:03.843Z,1.07
2022-09-28T14:21:57.961Z,0.87
2022-09-28T14:24:35.491Z,0.40
2022-09-28T14:27:35.821Z,0.50
2022-09-28T14:30:17.820Z,0.57
2022-09-28T14:32:54.905Z,0.43
2022-09-28T14:35:31.165Z,0.30
2022-09-28T14:38:22.019Z,0.43
2022-09-28T14:41:10.166Z,0.30
2022-09-28T14:43:53.794Z,0.53
2022-09-28T14:46:32.999Z,2.40
2022-09-28T14:49:03.546Z,1.23
2022-09-28T14:52:03.581Z,0.67
2022-09-28T14:54:46.245Z,0.87
2022-09-28T14:57:18.801Z,0.80
2022-09-28T14:59:48.040Z,1.30
2022-09-28T15:02:26.056Z,3.60
2022-09-28T15:04:56.320Z,4.53
2022-09-28T15:07:28.722Z,2.83
2022-09-28T15:09:57.442Z,3.13
2022-09-28T15:12:28.422Z,1.40
2022-09-28T15:14:58.917Z,2.30
2022-09-28T15:17:30.028Z,1.77
2022-09-28T15:20:33.240Z,1.27
2022-09-28T15:23:02.336Z,1.43
2022-09-28T15:25:31.707Z,1.87
2022-09-28T15:28:04.466Z,0.97
2022-09-28T15:30:33.644Z,0.60
2022-09-28T15:33:16.726Z,0.40
2022-09-28T15:35:47.708Z,2.67
2022-09-28T15:38:18.277Z,2.13
2022-09-28T15:40:47.510Z,1.30
2022-09-28T15:43:26.745Z,1.70
2022-09-28T15:46:02.401Z,0.67
2022-09-28T15:48:33.492Z,1.87
2022-09-28T15:51:10.700Z,1.83
2022-09-28T15:53:44.416Z,1.43
2022-09-28T15:56:12.463Z,1.30
2022-09-28T15:58:40.732Z,1.30
2022-09-28T16:01:36.020Z,0.93
2022-09-28T16:04:38.501Z,0.60
2022-09-28T16:07:20.273Z,2.37
2022-09-28T16:10:04.726Z,0.87
2022-09-28T16:12:44.361Z,0.77
2022-09-28T16:15:20.079Z,0.70
2022-09-28T16:17:51.925Z,1.17
2022-09-28T16:20:27.633Z,1.37
2022-09-28T16:22:56.864Z,0.50
2022-09-28T16:25:27.652Z,0.93
2022-09-28T16:27:56.754Z,0.97
2022-09-28T16:30:27.216Z,0.40
2022-09-28T16:32:57.320Z,1.50
2022-09-28T16:35:28.233Z,1.87
2022-09-28T16:38:03.326Z,2.03
2022-09-28T16:40:33.721Z,1.30
2022-09-28T16:43:05.293Z,2.17
2022-09-28T16:45:35.076Z,3.30
2022-09-28T16:48:03.345Z,4.53
2022-09-28T16:50:31.078Z,3.00
2022-09-28T16:53:19.700Z,3.27
2022-09-28T16:55:50.541Z,2.17
2022-09-28T16:58:18.524Z,2.87
2022-09-28T17:00:46.345Z,3.13
2022-09-28T17:03:15.753Z,3.63
2022-09-28T17:05:44.068Z,2.77
2022-09-28T17:08:17.121Z,3.00
2022-09-28T17:11:13.052Z,3.57
2022-09-28T17:13:40.809Z,4.77
2022-09-28T17:16:13.041Z,3.50
2022-09-28T17:18:41.378Z,2.97
2022-09-28T17:21:12.750Z,3.37
2022-09-28T17:23:40.487Z,3.77
2022-09-28T17:26:15.873Z,4.10
2022-09-28T17:28:43.653Z,2.67
2022-09-28T17:31:15.024Z,2.90
2022-09-28T17:33:42.877Z,1.77
2022-09-28T17:36:15.677Z,2.40
2022-09-28T17:38:43.794Z,2.27
2022-09-28T17:41:19.438Z,7.40
2022-09-28T17:43:48.467Z,4.13
2022-09-28T17:46:27.923Z,4.77
2022-09-28T17:48:59.281Z,3.67
2022-09-28T17:51:27.768Z,4.07
2022-09-28T17:53:56.054Z,1.33
2022-09-28T17:56:31.005Z,5.63
2022-09-28T17:59:01.197Z,2.10
2022-09-28T18:01:33.823Z,2.43
2022-09-28T18:04:02.544Z,2.27
2022-09-28T18:06:33.369Z,1.80
2022-09-28T18:09:01.741Z,2.40
2022-09-28T18:11:31.022Z,2.97
2022-09-28T18:13:58.753Z,22.83
2022-09-28T18:16:27.819Z,21.47
2022-09-28T18:18:55.781Z,16.67
2022-09-28T18:21:23.586Z,9.83
2022-09-28T18:23:51.548Z,4.13
2022-09-28T18:26:19.841Z,2.67
2022-09-28T18:28:48.951Z,1.37
2022-09-28T18:31:18.895Z,2.20
2022-09-28T18:33:48.204Z,3.33
2022-09-28T18:36:15.972Z,1.73
2022-09-28T18:38:43.714Z,4.53
2022-09-28T18:41:13.322Z,4.07
2022-09-28T18:43:41.078Z,1.50
2022-09-28T18:46:11.581Z,2.80
2022-09-28T18:48:41.481Z,2.13
2022-09-28T18:51:09.816Z,2.87
2022-09-28T18:53:37.664Z,2.73
2022-09-28T18:56:10.681Z,2.70
2022-09-28T18:58:39.482Z,3.07
2022-09-28T19:01:28.882Z,2.23
2022-09-28T19:03:59.666Z,2.57
2022-09-28T19:06:27.518Z,2.63
2022-09-28T19:08:56.388Z,4.00
2022-09-28T19:11:25.157Z,4.87
2022-09-28T19:13:54.948Z,6.17
2022-09-28T19:16:24.519Z,7.80
2022-09-28T19:18:53.506Z,6.63
2022-09-28T19:21:22.712Z,6.23
2022-09-28T19:23:51.933Z,4.63
2022-09-28T19:26:21.709Z,3.50
2022-09-28T19:28:49.491Z,3.53
2022-09-28T19:31:17.751Z,3.50
2022-09-28T19:33:46.672Z,3.27
2022-09-28T19:36:17.114Z,4.27
2022-09-28T19:38:47.045Z,6.03
2022-09-28T19:41:39.532Z,6.73
2022-09-28T19:44:12.971Z,6.03
2022-09-28T19:46:41.179Z,6.20
2022-09-28T19:49:10.972Z,4.23
2022-09-28T19:51:51.513Z,7.10
2022-09-28T19:54:35.702Z,5.80
2022-09-28T19:57:07.273Z,7.57
2022-09-28T19:59:35.488Z,7.13
2022-09-28T20:02:03.297Z,5.73
2022-09-28T20:04:31.226Z,7.03
2022-09-28T20:06:58.992Z,7.53
2022-09-28T20:09:26.758Z,5.40
2022-09-28T20:11:55.967Z,5.13
2022-09-28T20:14:25.938Z,6.10
2022-09-28T20:16:54.237Z,5.13
2022-09-28T20:19:23.138Z,6.83
2022-09-28T20:21:51.367Z,5.90
2022-09-28T20:24:19.388Z,7.63
2022-09-28T20:26:49.393Z,8.20
2022-09-28T20:29:18.510Z,4.70
2022-09-28T20:31:46.341Z,4.20
2022-09-28T20:34:14.094Z,3.67
2022-09-28T20:36:44.541Z,6.00
2022-09-28T20:39:13.552Z,4.13
2022-09-28T20:41:41.399Z,5.50
2022-09-28T20:44:09.768Z,4.30
2022-09-28T20:46:38.915Z,5.87
2022-09-28T20:49:07.561Z,6.33
2022-09-28T20:51:35.305Z,5.77
2022-09-28T20:54:03.048Z,5.40
2022-09-28T20:56:37.538Z,5.43
2022-09-28T20:59:05.565Z,5.63
2022-09-28T21:01:33.368Z,6.07
2022-09-28T21:04:04.614Z,4.00
2022-09-28T21:06:33.885Z,9.40
2022-09-28T21:09:01.810Z,8.93
2022-09-28T21:11:30.441Z,10.17
2022-09-28T21:13:59.775Z,8.13
2022-09-28T21:16:29.133Z,9.23
2022-09-28T21:18:56.984Z,9.13
2022-09-28T21:21:26.663Z,7.73
2022-09-28T21:23:54.692Z,5.60
2022-09-28T21:26:25.768Z,6.33
2022-09-28T21:28:54.533Z,6.00
2022-09-28T21:31:28.562Z,5.03
2022-09-28T21:33:57.061Z,5.70
2022-09-28T21:36:26.624Z,4.70
2022-09-28T21:38:55.935Z,5.53
2022-09-28T21:41:23.860Z,4.87
2022-09-28T21:43:51.744Z,9.67
2022-09-28T21:46:19.601Z,7.77
2022-09-28T21:48:47.462Z,5.70
2022-09-28T21:51:16.322Z,5.47
2022-09-28T21:53:45.410Z,6.13
2022-09-28T21:56:13.972Z,5.47
2022-09-28T21:58:41.760Z,7.13
2022-09-28T22:01:11.976Z,7.47
2022-09-28T22:03:39.796Z,5.70
2022-09-28T22:06:08.337Z,4.43
2022-09-28T22:08:37.064Z,5.53
2022-09-28T22:11:08.455Z,5.60
2022-09-28T22:13:40.218Z,4.97
2022-09-28T22:16:08.676Z,5.77
2022-09-28T22:18:36.762Z,5.37
2022-09-28T22:21:07.124Z,5.43
2022-09-28T22:23:35.612Z,3.47
2022-09-28T22:26:06.912Z,4.80
2022-09-28T22:28:35.268Z,5.07
2022-09-28T22:31:03.104Z,4.53
2022-09-28T22:33:30.889Z,4.57
2022-09-28T22:35:58.624Z,5.90
2022-09-28T22:38:26.397Z,6.00
2022-09-28T22:40:55.929Z,5.03
2022-09-28T22:43:26.370Z,5.70
2022-09-28T22:46:03.115Z,6.67
2022-09-28T22:48:30.943Z,5.37
2022-09-28T22:50:58.997Z,5.63
2022-09-28T22:53:26.770Z,5.23
2022-09-28T22:55:54.624Z,4.50
2022-09-28T22:58:22.404Z,4.33
2022-09-28T23:00:51.500Z,5.40
2022-09-28T23:03:19.263Z,4.27
2022-09-28T23:05:53.886Z,2.97
2022-09-28T23:08:22.121Z,3.40
2022-09-28T23:10:50.638Z,3.97
2022-09-28T23:13:18.760Z,3.77
2022-09-28T23:15:57.055Z,3.97
2022-09-28T23:18:25.968Z,6.50
2022-09-28T23:20:54.835Z,3.63
2022-09-28T23:23:23.014Z,4.67
2022-09-28T23:25:51.326Z,5.27
2022-09-28T23:28:19.674Z,4.97
2022-09-28T23:30:47.840Z,5.30
2022-09-28T23:33:18.520Z,4.70
2022-09-28T23:35:46.985Z,3.33
2022-09-28T23:38:16.424Z,3.57
2022-09-28T23:40:45.304Z,2.83
2022-09-28T23:43:13.317Z,2.90
2022-09-28T23:45:42.823Z,3.97
2022-09-28T23:48:10.854Z,4.63
2022-09-28T23:50:39.916Z,3.60
2022-09-28T23:53:07.957Z,5.40
2022-09-28T23:55:35.713Z,6.03
2022-09-28T23:58:03.438Z,3.20
